createdAt,value
2018-04-20T00:02:09.412Z,18.20
2018-04-20T00:04:36.849Z,18.20
2018-04-20T00:07:04.294Z,18.30
2018-04-20T00:09:31.750Z,18.30
2018-04-20T00:11:59.200Z,18.30
2018-04-20T00:14:28.251Z,18.20
2018-04-20T00:16:55.728Z,18.20
2018-04-20T03:42:50.106Z,15.60
2018-04-20T03:45:17.567Z,15.70
2018-04-20T03:47:45.031Z,15.70
2018-04-20T03:50:12.500Z,15.60
2018-04-20T03:52:39.939Z,15.60
2018-04-20T03:55:07.396Z,15.70
2018-04-20T03:57:34.859Z,15.50
2018-04-20T04:00:02.931Z,15.50
2018-04-20T04:02:30.404Z,15.50
2018-04-20T04:04:57.861Z,15.50
2018-04-20T04:07:25.315Z,15.50
2018-04-20T04:09:52.929Z,15.50
2018-04-20T04:12:20.521Z,15.30
2018-04-20T04:14:47.984Z,15.20
2018-04-20T04:17:28.138Z,15.10
2018-04-20T04:20:07.572Z,15.00
2018-04-20T04:22:46.908Z,15.10
2018-04-20T04:25:26.181Z,15.10
2018-04-20T04:28:06.366Z,15.00
2018-04-20T04:30:33.886Z,15.00
2018-04-20T04:33:02.093Z,14.80
2018-04-20T04:35:29.563Z,14.80
2018-04-20T04:37:57.028Z,14.70
2018-04-20T04:40:24.616Z,14.70
2018-04-20T04:42:52.035Z,14.70
2018-04-20T04:45:19.482Z,14.80
2018-04-20T04:47:46.945Z,14.70
2018-04-20T04:50:14.408Z,14.70
2018-04-20T04:52:41.880Z,14.60
2018-04-20T04:55:09.353Z,14.60
2018-04-20T04:57:36.864Z,14.50
2018-04-20T05:00:04.306Z,14.50
2018-04-20T05:02:31.790Z,14.60
2018-04-20T05:04:59.256Z,14.60
2018-04-20T05:07:26.793Z,14.60
2018-04-20T05:09:54.266Z,14.70
2018-04-20T05:12:21.706Z,14.70
2018-04-20T05:14:49.165Z,14.70
2018-04-20T05:17:16.695Z,14.70
2018-04-20T05:19:44.915Z,14.80
2018-04-20T05:22:12.380Z,14.70
2018-04-20T05:24:39.863Z,14.90
2018-04-20T05:27:07.357Z,15.00
2018-04-20T05:29:34.794Z,15.10
2018-04-20T05:32:03.023Z,15.10
2018-04-20T05:34:30.555Z,15.10
2018-04-20T05:36:58.015Z,15.10
2018-04-20T05:39:25.476Z,15.00
2018-04-20T05:41:52.905Z,15.00
2018-04-20T05:44:20.388Z,15.20
2018-04-20T05:46:47.936Z,15.10
2018-04-20T05:49:16.126Z,15.20
2018-04-20T05:51:43.571Z,15.10
2018-04-20T05:54:11.035Z,15.30
2018-04-20T05:56:38.509Z,15.40
2018-04-20T05:59:05.979Z,15.50
2018-04-20T06:01:35.396Z,15.60
2018-04-20T06:04:02.842Z,15.70
2018-04-20T06:06:30.293Z,15.70
2018-04-20T06:08:57.754Z,15.80
2018-04-20T06:11:25.218Z,15.90
2018-04-20T06:13:52.656Z,15.80
2018-04-20T06:16:20.106Z,15.80
2018-04-20T06:18:47.608Z,15.90
2018-04-20T06:21:15.920Z,16.30
2018-04-20T06:23:43.363Z,16.30
2018-04-20T06:26:10.840Z,16.40
2018-04-20T06:28:38.332Z,16.60
2018-04-20T06:31:05.786Z,16.90
2018-04-20T06:33:33.275Z,17.20
2018-04-20T06:36:01.479Z,17.80
2018-04-20T06:38:29.036Z,17.80
2018-04-20T06:40:56.472Z,18.10
2018-04-20T06:43:23.936Z,18.20
2018-04-20T06:45:51.405Z,18.30
2018-04-20T06:48:18.861Z,18.30
2018-04-20T06:50:46.332Z,18.40
2018-04-20T06:53:13.777Z,18.60
2018-04-20T06:55:41.255Z,18.90
2018-04-20T06:58:08.719Z,19.20
2018-04-20T07:00:36.321Z,19.60
2018-04-20T07:03:04.562Z,20.60
2018-04-20T07:05:32.005Z,20.60
2018-04-20T07:07:59.474Z,21.00
2018-04-20T07:10:26.956Z,21.50
2018-04-20T07:12:54.402Z,21.70
2018-04-20T07:15:22.468Z,22.10
2018-04-20T07:17:49.981Z,22.30
2018-04-20T07:20:17.460Z,22.40
2018-04-20T07:22:44.935Z,22.60
2018-04-20T07:25:12.398Z,22.70
2018-04-20T07:27:39.910Z,23.00
2018-04-20T07:30:07.438Z,23.30
2018-04-20T07:32:34.877Z,23.40
2018-04-20T07:35:02.339Z,23.70
2018-04-20T07:37:29.797Z,24.00
2018-04-20T07:39:57.246Z,24.60
2018-04-20T07:42:24.726Z,24.90
2018-04-20T07:44:52.931Z,25.20
2018-04-20T07:47:20.389Z,25.10
2018-04-20T07:49:47.861Z,25.30
2018-04-20T07:52:15.326Z,25.70
2018-04-20T07:54:42.801Z,25.50
2018-04-20T07:57:10.267Z,26.00
2018-04-20T07:59:37.745Z,26.30
2018-04-20T08:02:05.955Z,27.10
2018-04-20T08:04:33.395Z,27.10
2018-04-20T08:07:00.960Z,27.10
2018-04-20T08:09:28.396Z,27.00
2018-04-20T08:11:55.864Z,27.10
2018-04-20T08:14:23.345Z,27.60
2018-04-20T08:16:50.787Z,27.70
2018-04-20T08:19:18.246Z,28.20
2018-04-20T08:21:45.737Z,27.90
2018-04-20T08:24:13.190Z,28.20
2018-04-20T08:26:40.662Z,28.30
2018-04-20T08:29:08.136Z,28.70
2018-04-20T08:31:36.357Z,29.50
2018-04-20T08:34:03.823Z,29.50
2018-04-20T08:36:31.260Z,29.60
2018-04-20T08:38:58.714Z,30.20
2018-04-20T08:41:26.175Z,30.80
2018-04-20T08:43:53.627Z,31.30
2018-04-20T08:46:21.189Z,31.80
2018-04-20T08:48:48.634Z,31.30
2018-04-20T08:51:16.098Z,31.50
2018-04-20T08:53:43.577Z,31.90
2018-04-20T08:56:11.043Z,32.00
2018-04-20T08:58:39.271Z,32.20
2018-04-20T09:01:06.751Z,32.20
2018-04-20T09:03:34.239Z,33.00
2018-04-20T09:06:01.699Z,32.50
2018-04-20T09:08:29.144Z,33.00
2018-04-20T09:10:56.623Z,33.60
2018-04-20T09:13:24.130Z,34.00
2018-04-20T09:15:51.610Z,34.40
2018-04-20T09:18:19.083Z,34.90
2018-04-20T09:20:46.610Z,35.20
2018-04-20T09:23:14.074Z,35.20
2018-04-20T09:25:41.620Z,35.30
2018-04-20T09:28:09.093Z,36.10
2018-04-20T09:30:36.565Z,36.70
2018-04-20T09:33:04.011Z,35.10
2018-04-20T09:35:31.548Z,35.60
2018-04-20T09:37:58.990Z,36.30
2018-04-20T09:40:26.567Z,36.20
2018-04-20T09:42:54.014Z,36.60
2018-04-20T09:45:21.493Z,36.70
2018-04-20T09:47:48.935Z,37.00
2018-04-20T09:50:16.493Z,37.50
2018-04-20T09:52:44.056Z,37.60
2018-04-20T09:55:11.507Z,37.20
2018-04-20T09:57:38.991Z,37.60
2018-04-20T10:00:06.526Z,37.50
2018-04-20T10:02:33.994Z,37.60
2018-04-20T10:05:01.438Z,37.70
2018-04-20T10:07:28.926Z,37.80
2018-04-20T10:09:56.375Z,38.20
2018-04-20T10:12:23.856Z,38.30
2018-04-20T10:14:51.295Z,38.60
2018-04-20T10:17:18.777Z,39.20
2018-04-20T10:19:46.368Z,39.60
2018-04-20T10:22:13.932Z,38.00
2018-04-20T10:24:41.427Z,38.50
2018-04-20T10:27:08.900Z,38.10
2018-04-20T10:29:36.346Z,36.70
2018-04-20T10:32:03.839Z,38.10
2018-04-20T10:34:31.298Z,38.20
2018-04-20T10:36:59.558Z,39.30
2018-04-20T10:39:27.858Z,39.40
2018-04-20T10:41:56.124Z,39.80
2018-04-20T10:44:24.354Z,40.10
2018-04-20T10:46:51.812Z,40.10
2018-04-20T10:49:19.300Z,40.00
2018-04-20T10:51:46.747Z,39.60
2018-04-20T10:54:14.199Z,40.40
2018-04-20T10:56:41.668Z,40.90
2018-04-20T10:59:09.157Z,40.80
2018-04-20T11:01:37.471Z,40.60
2018-04-20T11:04:04.917Z,40.60
2018-04-20T11:06:32.366Z,41.30
2018-04-20T11:08:59.840Z,40.40
2018-04-20T11:11:27.302Z,40.90
2018-04-20T11:13:54.727Z,41.30
2018-04-20T11:16:22.258Z,41.90
2018-04-20T11:18:50.467Z,41.70
2018-04-20T11:21:17.938Z,41.70
2018-04-20T11:23:45.390Z,39.90
2018-04-20T11:26:12.830Z,39.50
2018-04-20T11:28:40.290Z,40.80
2018-04-20T11:31:07.847Z,40.80
2018-04-20T11:33:35.323Z,41.30
2018-04-20T11:36:02.768Z,41.20
2018-04-20T11:38:30.318Z,40.90
2018-04-20T11:40:57.786Z,39.50
2018-04-20T11:43:25.232Z,39.60
2018-04-20T11:45:52.725Z,40.10
2018-04-20T11:48:20.195Z,41.20
2018-04-20T11:50:47.809Z,40.30
2018-04-20T11:53:15.280Z,38.60
2018-04-20T11:55:42.763Z,39.20
2018-04-20T11:58:10.283Z,40.70
2018-04-20T12:00:37.725Z,41.50
2018-04-20T12:03:05.180Z,40.20
2018-04-20T12:05:32.638Z,38.50
2018-04-20T12:08:00.106Z,38.30
2018-04-20T12:10:27.544Z,39.60
2018-04-20T12:12:55.003Z,38.40
2018-04-20T12:15:22.474Z,38.20
2018-04-20T12:17:49.931Z,38.10
2018-04-20T12:20:17.389Z,36.90
2018-04-20T12:22:44.854Z,38.30
2018-04-20T12:25:12.303Z,39.00
2018-04-20T12:27:39.802Z,38.50
2018-04-20T12:30:07.253Z,37.20
2018-04-20T12:32:34.731Z,36.30
2018-04-20T12:35:02.186Z,37.00
2018-04-20T12:37:29.670Z,38.30
2018-04-20T12:39:57.117Z,38.40
2018-04-20T12:42:24.586Z,39.20
2018-04-20T12:44:52.820Z,39.80
2018-04-20T12:47:20.293Z,39.70
2018-04-20T12:49:47.734Z,39.80
2018-04-20T12:52:15.207Z,39.90
2018-04-20T12:54:42.686Z,39.50
2018-04-20T12:57:10.384Z,40.20
2018-04-20T12:59:37.834Z,40.40
2018-04-20T13:02:05.310Z,39.80
2018-04-20T13:04:33.191Z,40.20
2018-04-20T13:07:00.645Z,40.30
2018-04-20T13:09:28.110Z,40.70
2018-04-20T13:11:55.619Z,40.90
2018-04-20T13:14:23.152Z,39.00
2018-04-20T13:16:51.392Z,36.40
2018-04-20T13:19:18.841Z,36.30
2018-04-20T13:21:46.316Z,36.50
2018-04-20T13:24:13.802Z,36.90
2018-04-20T13:26:42.037Z,35.90
2018-04-20T13:29:09.496Z,35.80
2018-04-20T13:31:36.974Z,35.40
2018-04-20T13:34:04.466Z,35.00
2018-04-20T13:36:32.203Z,34.80
2018-04-20T13:39:00.443Z,34.10
2018-04-20T13:41:27.939Z,34.00
2018-04-20T13:43:56.176Z,33.30
2018-04-20T13:46:24.423Z,33.00
2018-04-20T13:48:51.919Z,33.00
2018-04-20T13:51:19.364Z,32.60
2018-04-20T13:53:46.811Z,32.90
2018-04-20T13:56:14.286Z,33.00
2018-04-20T13:58:41.758Z,32.80
2018-04-20T14:01:09.231Z,32.80
2018-04-20T14:03:37.480Z,32.40
2018-04-20T14:06:04.950Z,32.40
2018-04-20T14:08:32.467Z,32.10
2018-04-20T14:10:59.915Z,32.30
2018-04-20T14:13:27.369Z,32.10
2018-04-20T14:15:54.839Z,32.30
2018-04-20T14:18:22.319Z,32.30
2018-04-20T14:20:49.823Z,32.00
2018-04-20T14:23:17.286Z,31.60
2018-04-20T14:25:45.464Z,31.50
2018-04-20T14:28:12.917Z,31.50
2018-04-20T14:30:40.448Z,31.70
2018-04-20T14:33:08.832Z,31.40
2018-04-20T14:35:36.341Z,31.40
2018-04-20T14:38:03.872Z,31.30
2018-04-20T14:40:31.325Z,31.40
2018-04-20T14:42:58.785Z,31.60
2018-04-20T14:45:26.242Z,31.90
2018-04-20T14:47:53.718Z,31.40
2018-04-20T14:50:21.179Z,31.10
2018-04-20T14:52:48.623Z,31.20
2018-04-20T14:55:16.118Z,30.80
2018-04-20T14:57:43.590Z,30.70
2018-04-20T15:00:11.840Z,30.90
2018-04-20T15:02:39.304Z,30.90
2018-04-20T15:05:06.816Z,31.10
2018-04-20T15:07:34.308Z,30.80
2018-04-20T15:10:01.773Z,30.80
2018-04-20T15:12:29.306Z,30.80
2018-04-20T15:14:58.695Z,30.80
2018-04-20T15:17:26.190Z,30.80
2018-04-20T15:19:53.676Z,30.80
2018-04-20T15:22:21.915Z,30.90
2018-04-20T15:24:49.372Z,30.80
2018-04-20T15:27:16.844Z,31.00
2018-04-20T15:29:44.332Z,30.90
2018-04-20T15:32:11.806Z,30.90
2018-04-20T15:34:39.288Z,30.70
2018-04-20T15:37:06.759Z,30.50
2018-04-20T15:39:34.215Z,30.70
2018-04-20T15:42:01.741Z,30.70
2018-04-20T15:44:29.196Z,30.30
2018-04-20T15:46:56.667Z,30.40
2018-04-20T15:49:24.128Z,30.50
2018-04-20T15:51:51.623Z,30.60
2018-04-20T15:54:19.066Z,30.70
2018-04-20T15:56:46.515Z,30.70
2018-04-20T15:59:13.966Z,30.80
2018-04-20T16:01:41.422Z,30.50
2018-04-20T16:04:08.891Z,30.20
2018-04-20T16:06:36.368Z,30.10
2018-04-20T16:09:03.850Z,30.10
2018-04-20T16:11:31.317Z,30.00
2018-04-20T16:13:58.785Z,30.00
2018-04-20T16:16:26.267Z,29.90
2018-04-20T16:18:53.718Z,29.80
2018-04-20T16:21:21.170Z,29.60
2018-04-20T16:23:48.646Z,29.50
2018-04-20T16:26:16.138Z,29.40
2018-04-20T16:28:44.372Z,29.30
2018-04-20T16:31:12.583Z,29.30
2018-04-20T16:33:40.836Z,29.30
2018-04-20T16:36:08.300Z,29.20
2018-04-20T16:38:35.763Z,29.10
2018-04-20T16:41:04.007Z,29.20
2018-04-20T16:43:31.499Z,29.10
2018-04-20T16:45:59.750Z,29.00
2018-04-20T16:48:27.212Z,28.90
2018-04-20T16:50:54.703Z,28.90
2018-04-20T16:53:22.941Z,28.70
2018-04-20T16:55:50.413Z,28.70
2018-04-20T16:58:17.892Z,28.80
2018-04-20T17:00:46.123Z,28.60
2018-04-20T17:03:13.618Z,28.60
2018-04-20T17:05:41.862Z,28.80
2018-04-20T17:08:09.309Z,28.70
2018-04-20T17:10:36.784Z,28.90
2018-04-20T17:13:04.258Z,28.70
2018-04-20T17:15:32.469Z,28.50
2018-04-20T17:17:59.943Z,28.40
2018-04-20T17:20:27.388Z,28.50
2018-04-20T17:22:54.859Z,28.60
2018-04-20T17:25:22.299Z,28.70
2018-04-20T17:27:49.766Z,28.70
2018-04-20T17:30:17.240Z,28.80
2018-04-20T17:32:44.731Z,28.70
2018-04-20T17:35:12.952Z,28.60
2018-04-20T17:37:40.397Z,28.60
2018-04-20T17:40:07.906Z,28.50
2018-04-20T17:42:35.350Z,28.50
2018-04-20T17:45:02.821Z,28.40
2018-04-20T17:47:30.295Z,28.30
2018-04-20T17:49:58.566Z,28.20
2018-04-20T17:52:26.824Z,28.20
2018-04-20T17:54:54.247Z,28.20
2018-04-20T17:57:21.781Z,28.10
2018-04-20T17:59:49.245Z,28.00
2018-04-20T18:02:16.804Z,28.00
2018-04-20T18:04:44.247Z,27.90
2018-04-20T18:07:11.731Z,27.80
2018-04-20T18:09:39.721Z,27.80
2018-04-20T18:12:07.194Z,27.70
2018-04-20T18:14:34.654Z,27.60
2018-04-20T18:17:02.099Z,27.50
2018-04-20T18:19:29.591Z,27.40
2018-04-20T18:21:57.068Z,27.30
2018-04-20T18:24:24.545Z,27.20
2018-04-20T18:26:51.999Z,27.00
2018-04-20T18:29:19.448Z,27.00
2018-04-20T18:31:46.909Z,26.90
2018-04-20T18:34:14.359Z,26.80
2018-04-20T18:36:41.867Z,26.70
2018-04-20T18:39:09.326Z,26.60
2018-04-20T18:41:36.807Z,26.50
2018-04-20T18:44:05.031Z,26.30
2018-04-20T18:46:32.563Z,26.30
2018-04-20T18:49:00.001Z,26.20
2018-04-20T18:51:27.556Z,26.20
2018-04-20T18:53:55.901Z,26.00
2018-04-20T18:56:24.334Z,25.80
2018-04-20T18:58:51.814Z,25.80
2018-04-20T19:01:19.283Z,25.70
2018-04-20T19:03:46.754Z,25.60
2018-04-20T19:06:14.234Z,25.60
2018-04-20T19:08:42.469Z,25.30
2018-04-20T19:11:09.923Z,25.30
2018-04-20T19:13:37.390Z,25.30
2018-04-20T19:16:04.837Z,25.20
2018-04-20T19:18:32.296Z,25.10
2018-04-20T19:21:01.452Z,24.90
2018-04-20T19:23:28.931Z,24.90
2018-04-20T19:25:56.547Z,24.80
2018-04-20T19:28:24.824Z,24.70
2018-04-20T19:30:52.315Z,24.70
2018-04-20T19:33:19.784Z,24.60
2018-04-20T19:35:47.327Z,24.50
2018-04-20T19:38:14.759Z,24.50
2018-04-20T19:40:42.244Z,24.50
2018-04-20T19:43:09.762Z,24.40
2018-04-20T19:45:38.050Z,24.40
2018-04-20T19:48:05.837Z,24.40
2018-04-20T19:50:33.344Z,24.30
2018-04-20T19:53:00.813Z,24.20
2018-04-20T19:55:29.062Z,24.10
2018-04-20T19:57:56.654Z,24.00
2018-04-20T20:00:24.107Z,24.10
2018-04-20T20:02:52.437Z,23.90
2018-04-20T20:05:20.120Z,23.90
2018-04-20T20:07:47.698Z,23.80
2018-04-20T20:10:16.015Z,23.40
2018-04-20T20:12:43.488Z,23.40
2018-04-20T20:15:10.936Z,23.40
2018-04-20T20:17:38.398Z,23.30
2018-04-20T20:20:05.842Z,23.30
2018-04-20T20:22:33.325Z,23.30
2018-04-20T20:25:00.809Z,23.20
2018-04-20T20:27:28.307Z,23.30
2018-04-20T20:29:55.780Z,23.20
2018-04-20T20:32:23.270Z,23.20
2018-04-20T20:34:51.526Z,23.20
2018-04-20T20:37:18.996Z,23.20
2018-04-20T20:39:46.503Z,23.20
2018-04-20T20:42:14.749Z,23.20
2018-04-20T20:44:42.234Z,23.20
2018-04-20T20:47:10.526Z,23.10
2018-04-20T20:49:38.204Z,23.10
2018-04-20T20:52:05.663Z,23.10
2018-04-20T20:54:33.115Z,23.10
2018-04-20T20:57:00.564Z,23.00
2018-04-20T20:59:28.234Z,23.00
2018-04-20T21:01:55.726Z,22.90
2018-04-20T21:04:23.236Z,23.00
2018-04-20T21:06:50.721Z,23.00
2018-04-20T21:09:18.237Z,23.00
2018-04-20T21:11:45.743Z,23.00
2018-04-20T21:14:13.208Z,23.00
2018-04-20T21:16:41.458Z,22.90
2018-04-20T21:19:08.920Z,22.90
2018-04-20T21:21:36.401Z,22.90
2018-04-20T21:24:03.881Z,22.90
2018-04-20T21:26:32.097Z,22.80
2018-04-20T21:28:59.553Z,22.80
2018-04-20T21:31:27.032Z,22.70
2018-04-20T21:33:59.378Z,22.70
2018-04-20T21:36:22.041Z,22.70
2018-04-20T21:38:49.508Z,22.70
2018-04-20T21:41:16.967Z,22.70
2018-04-20T21:43:44.931Z,22.50
2018-04-20T21:46:13.732Z,22.50
2018-04-20T21:48:41.182Z,22.50
2018-04-20T21:51:08.633Z,22.40
2018-04-20T21:53:36.113Z,22.40
2018-04-20T21:56:03.564Z,22.30
2018-04-20T21:58:31.039Z,22.30
2018-04-20T22:00:59.251Z,22.20
2018-04-20T22:03:26.800Z,22.20
2018-04-20T22:05:54.294Z,22.20
2018-04-20T22:08:21.822Z,22.20
2018-04-20T22:10:49.371Z,22.00
2018-04-20T22:13:17.712Z,21.90
2018-04-20T22:15:45.209Z,21.90
2018-04-20T22:18:12.682Z,21.80
2018-04-20T22:20:40.152Z,21.80
2018-04-20T22:23:07.670Z,21.70
2018-04-20T22:25:35.186Z,21.60
2018-04-20T22:28:02.664Z,21.50
2018-04-20T22:30:30.143Z,21.40
2018-04-20T22:32:58.380Z,21.30
2018-04-20T22:35:25.836Z,21.30
2018-04-20T22:37:53.356Z,21.20
2018-04-20T22:40:20.804Z,21.20
2018-04-20T22:42:48.299Z,21.10
2018-04-20T22:45:15.775Z,21.20
2018-04-20T22:47:43.230Z,21.00
2018-04-20T22:50:10.716Z,21.00
2018-04-20T22:52:38.931Z,20.90
2018-04-20T22:55:06.395Z,20.90
2018-04-20T22:57:33.849Z,20.90
2018-04-20T23:00:01.325Z,20.80
2018-04-20T23:02:28.806Z,20.80
2018-04-20T23:04:57.038Z,20.70
2018-04-20T23:07:24.541Z,20.60
2018-04-20T23:09:52.781Z,20.60
2018-04-20T23:12:20.249Z,20.60
2018-04-20T23:14:47.711Z,20.60
2018-04-20T23:17:15.195Z,20.50
2018-04-20T23:19:43.457Z,20.40
2018-04-20T23:22:11.736Z,20.30
2018-04-20T23:24:39.962Z,20.30
2018-04-20T23:27:07.451Z,20.30
2018-04-20T23:29:35.682Z,20.20
2018-04-20T23:32:03.126Z,20.10
2018-04-20T23:34:30.624Z,20.20
2018-04-20T23:36:58.117Z,20.20
2018-04-20T23:39:26.359Z,20.10
2018-04-20T23:41:53.839Z,20.10
2018-04-20T23:44:21.395Z,20.20
2018-04-20T23:46:48.922Z,20.10
2018-04-20T23:49:16.458Z,20.10
2018-04-20T23:51:43.920Z,20.10
2018-04-20T23:54:11.478Z,20.10
2018-04-20T23:56:38.934Z,20.10
2018-04-20T23:59:06.399Z,20.00
